Time;durP1;ratioP1;P1;durP2;ratioP2;P2;SDS_P1;SDS_P2;PMS_P1;PMS_P2;Temp;Humidity;BMP_temperature;BMP_pressure;BME280_temperature;BME280_humidity;BME280_pressure;Samples;Min_cycle;Max_cycle;Signal;HPM_P1;HPM_P2
2022/03/13 00:00:42;;;;;;;16.80;11.57;;;-0.40;57.70;;;;;;5017210;28;20279;-86
2022/03/13 00:03:10;;;;;;;16.17;11.37;;;-0.40;57.80;;;;;;4957267;28;20240;-86
2022/03/13 00:05:41;;;;;;;16.37;11.13;;;-0.40;57.80;;;;;;5019910;28;20695;-86
2022/03/13 00:08:30;;;;;;;16.80;12.63;;;-0.50;58.10;;;;;;5025592;28;20559;-86
2022/03/13 00:10:58;;;;;;;15.90;11.33;;;-0.50;58.20;;;;;;5021656;28;20157;-88
2022/03/13 00:13:30;;;;;;;18.80;11.03;;;-0.60;58.20;;;;;;5017681;28;20251;-86
2022/03/13 00:16:01;;;;;;;15.17;11.20;;;-0.60;58.50;;;;;;5016593;28;20889;-88
2022/03/13 00:18:27;;;;;;;15.97;11.03;;;-0.70;58.50;;;;;;4999434;28;20654;-85
2022/03/13 00:20:53;;;;;;;14.10;11.60;;;-0.80;58.60;;;;;;5017152;28;20176;-86
2022/03/13 00:23:20;;;;;;;17.23;12.07;;;-0.80;58.60;;;;;;4999278;28;20200;-85
2022/03/13 00:25:46;;;;;;;17.13;10.70;;;-0.80;58.40;;;;;;5018221;28;20256;-88
2022/03/13 00:28:12;;;;;;;17.80;11.23;;;-0.80;58.50;;;;;;5001025;28;20236;-87
2022/03/13 00:30:39;;;;;;;15.80;11.43;;;-0.70;58.50;;;;;;5017541;28;20170;-89
2022/03/13 00:33:06;;;;;;;16.53;10.83;;;-0.60;58.70;;;;;;5017343;28;20629;-88
2022/03/13 00:35:32;;;;;;;15.17;11.23;;;-0.70;58.20;;;;;;5016475;28;20220;-88
2022/03/13 00:37:58;;;;;;;17.43;11.43;;;-0.70;58.30;;;;;;4999692;28;20173;-89
2022/03/13 00:40:25;;;;;;;15.10;11.93;;;-0.70;58.20;;;;;;5016769;28;20192;-89
2022/03/13 00:42:51;;;;;;;14.93;11.47;;;-0.80;57.70;;;;;;4999129;28;20691;-89
2022/03/13 00:45:17;;;;;;;18.77;11.37;;;-0.90;57.70;;;;;;5015957;28;20174;-88
2022/03/13 00:47:43;;;;;;;17.77;11.67;;;-0.90;58.00;;;;;;5020008;28;20209;-89
2022/03/13 00:50:10;;;;;;;13.87;11.10;;;-0.80;58.30;;;;;;5002590;28;20252;-89
2022/03/13 00:52:35;;;;;;;15.53;11.77;;;-0.60;58.50;;;;;;5018462;28;20192;-89
2022/03/13 00:55:01;;;;;;;14.83;10.93;;;-0.70;58.10;;;;;;5000799;28;20174;-89
2022/03/13 00:57:29;;;;;;;14.93;11.23;;;-0.60;58.30;;;;;;5025980;28;20177;-89
2022/03/13 00:59:54;;;;;;;15.27;11.30;;;-0.60;58.10;;;;;;5018441;28;20240;-89
2022/03/13 01:02:20;;;;;;;16.33;11.37;;;-0.70;58.30;;;;;;4998867;28;20754;-86
2022/03/13 01:04:46;;;;;;;16.33;10.93;;;-0.70;58.80;;;;;;4998321;28;20316;-89
2022/03/13 01:07:14;;;;;;;18.00;10.97;;;-0.80;58.80;;;;;;5015415;28;20175;-85
2022/03/13 01:09:41;;;;;;;16.07;10.00;;;-0.80;59.00;;;;;;5015502;28;20180;-87
2022/03/13 01:12:07;;;;;;;14.37;10.87;;;-0.90;58.90;;;;;;5015675;28;20165;-86
2022/03/13 01:14:35;;;;;;;15.20;11.87;;;-0.90;58.70;;;;;;5015380;28;20205;-89
2022/03/13 01:17:10;;;;;;;15.47;11.33;;;-1.00;58.60;;;;;;4997577;28;20268;-87
2022/03/13 01:19:39;;;;;;;14.37;11.27;;;-1.00;58.80;;;;;;5015129;28;20149;-89
2022/03/13 01:22:06;;;;;;;14.67;10.87;;;-1.00;58.60;;;;;;5015743;28;20200;-87
2022/03/13 01:24:44;;;;;;;18.47;11.37;;;-1.00;58.20;;;;;;4997966;28;20173;-86
2022/03/13 01:27:15;;;;;;;15.13;11.53;;;-1.20;58.30;;;;;;5001000;28;20181;-87
2022/03/13 01:29:42;;;;;;;17.97;11.27;;;-1.20;58.40;;;;;;5016922;28;20252;-86
2022/03/13 01:32:10;;;;;;;18.47;10.83;;;-1.30;58.50;;;;;;5019876;28;20169;-86
2022/03/13 01:34:45;;;;;;;16.87;10.97;;;-1.20;58.70;;;;;;5020604;28;20166;-87
2022/03/13 01:37:27;;;;;;;16.27;11.17;;;-1.30;58.60;;;;;;4998785;28;20655;-86
2022/03/13 01:39:54;;;;;;;15.33;10.77;;;-1.30;58.80;;;;;;5014978;28;20161;-86
2022/03/13 01:42:20;;;;;;;14.10;10.93;;;-1.30;59.00;;;;;;5015560;28;20617;-86
2022/03/13 01:44:46;;;;;;;15.17;11.07;;;-1.30;59.10;;;;;;5014644;28;20184;-85
2022/03/13 01:47:11;;;;;;;16.07;10.67;;;-1.30;59.60;;;;;;5015825;28;20234;-85
2022/03/13 01:49:39;;;;;;;14.33;10.83;;;-1.30;59.60;;;;;;4998084;28;20177;-86
2022/03/13 01:52:05;;;;;;;13.57;10.33;;;-1.40;59.70;;;;;;5015964;28;20185;-85
2022/03/13 01:54:31;;;;;;;15.40;10.50;;;-1.40;59.90;;;;;;5015344;28;20680;-88
2022/03/13 01:57:00;;;;;;;13.73;10.67;;;-1.50;60.00;;;;;;4981744;28;20185;-87
2022/03/13 01:59:28;;;;;;;14.67;11.07;;;-1.50;60.10;;;;;;5014900;28;20168;-86
2022/03/13 02:01:56;;;;;;;13.63;10.00;;;-1.60;60.20;;;;;;5015690;28;20173;-90
2022/03/13 02:04:30;;;;;;;16.07;11.30;;;-1.60;60.30;;;;;;5015188;28;20188;-86
2022/03/13 02:06:58;;;;;;;16.60;10.67;;;-1.60;60.50;;;;;;5006905;28;20185;-87
2022/03/13 02:09:25;;;;;;;13.87;10.03;;;-1.70;60.50;;;;;;5021854;28;20661;-86
2022/03/13 02:11:51;;;;;;;14.20;10.63;;;-1.70;60.70;;;;;;5014784;28;20181;-90
2022/03/13 02:14:21;;;;;;;13.67;10.80;;;-1.70;60.80;;;;;;5016885;28;20223;-89
2022/03/13 02:16:49;;;;;;;14.10;10.27;;;-1.80;60.90;;;;;;5018249;28;20224;-89
2022/03/13 02:19:16;;;;;;;12.70;10.57;;;-1.80;60.90;;;;;;5018329;28;20677;-89
2022/03/13 02:21:44;;;;;;;20.83;10.80;;;-1.70;61.10;;;;;;5000608;28;20281;-88
2022/03/13 02:24:15;;;;;;;14.13;10.50;;;-1.70;61.20;;;;;;5001179;28;20182;-86
2022/03/13 02:26:55;;;;;;;14.33;10.37;;;-1.70;60.60;;;;;;5019040;28;20181;-86
2022/03/13 02:29:21;;;;;;;14.17;10.30;;;-1.70;60.90;;;;;;5017600;28;20299;-86
2022/03/13 02:31:46;;;;;;;15.23;10.33;;;-1.50;60.90;;;;;;5016617;28;20255;-86
2022/03/13 02:34:14;;;;;;;13.77;10.30;;;-1.60;60.70;;;;;;4998920;28;20184;-85
2022/03/13 02:36:46;;;;;;;13.57;10.67;;;-1.60;60.90;;;;;;5032559;28;20289;-86
2022/03/13 02:39:12;;;;;;;17.97;10.83;;;-1.60;60.90;;;;;;5018882;28;20176;-86
2022/03/13 02:41:40;;;;;;;14.53;10.03;;;-1.80;61.20;;;;;;5038589;28;20172;-89
2022/03/13 02:44:11;;;;;;;15.43;10.87;;;-1.90;61.80;;;;;;5044959;28;20202;-89
2022/03/13 02:46:46;;;;;;;14.17;11.03;;;-2.00;62.30;;;;;;5025198;28;21103;-89
2022/03/13 02:49:18;;;;;;;15.20;10.40;;;-1.90;61.80;;;;;;5039385;28;20210;-90
2022/03/13 02:51:45;;;;;;;13.97;10.50;;;-1.90;61.70;;;;;;5038251;28;20215;-90
2022/03/13 02:54:11;;;;;;;17.30;10.83;;;-2.20;61.80;;;;;;5030011;28;20238;-88
2022/03/13 02:56:37;;;;;;;14.97;10.57;;;-2.20;62.20;;;;;;5017904;28;20200;-86
2022/03/13 02:59:03;;;;;;;15.03;10.23;;;-2.20;62.10;;;;;;5035602;28;20218;-86
2022/03/13 03:01:29;;;;;;;15.47;10.97;;;-2.30;62.10;;;;;;5035584;28;20207;-87
2022/03/13 03:04:00;;;;;;;14.73;10.37;;;-2.20;61.90;;;;;;5035866;28;20617;-86
2022/03/13 03:06:29;;;;;;;17.90;10.37;;;-2.20;61.60;;;;;;5035768;28;20168;-85
2022/03/13 03:08:56;;;;;;;14.70;10.33;;;-2.30;61.60;;;;;;5035629;28;20208;-86
2022/03/13 03:11:22;;;;;;;15.13;10.10;;;-2.30;61.70;;;;;;5035778;28;20171;-86
2022/03/13 03:13:48;;;;;;;14.90;10.97;;;-2.20;61.60;;;;;;5035860;28;20244;-86
2022/03/13 03:16:14;;;;;;;14.83;11.23;;;-2.10;61.50;;;;;;5035392;28;20179;-86
2022/03/13 03:18:40;;;;;;;14.70;10.53;;;-2.10;61.10;;;;;;5017083;28;20658;-86
2022/03/13 03:21:06;;;;;;;13.43;10.33;;;-2.10;61.30;;;;;;5034157;28;20219;-88
2022/03/13 03:23:32;;;;;;;15.20;11.47;;;-2.10;61.20;;;;;;5034806;28;20508;-85
2022/03/13 03:25:58;;;;;;;13.50;10.07;;;-2.10;60.90;;;;;;5034534;28;20172;-88
2022/03/13 03:28:23;;;;;;;12.50;10.23;;;-2.10;61.10;;;;;;5035728;28;20660;-87
2022/03/13 03:30:50;;;;;;;14.03;10.60;;;-2.10;61.20;;;;;;5035696;28;20635;-86
2022/03/13 03:33:16;;;;;;;14.97;10.17;;;-2.10;61.20;;;;;;5035656;28;20211;-88
2022/03/13 03:35:42;;;;;;;12.47;9.90;;;-2.10;61.10;;;;;;5035061;28;20263;-86
2022/03/13 03:38:08;;;;;;;14.83;11.17;;;-2.20;61.30;;;;;;5035713;28;20211;-86
2022/03/13 03:40:35;;;;;;;15.17;10.53;;;-2.20;61.40;;;;;;5035015;28;20168;-90
2022/03/13 03:43:04;;;;;;;14.00;10.43;;;-2.40;61.70;;;;;;5037507;28;20262;-88
2022/03/13 03:45:31;;;;;;;17.10;11.20;;;-2.30;61.90;;;;;;5036737;28;20168;-89
2022/03/13 03:47:57;;;;;;;18.77;11.60;;;-2.30;61.70;;;;;;5035415;28;20272;-90
2022/03/13 03:50:23;;;;;;;12.40;10.10;;;-2.30;61.70;;;;;;5035486;28;20650;-85
2022/03/13 03:52:56;;;;;;;14.73;11.07;;;-2.30;61.60;;;;;;5035417;28;20175;-88
2022/03/13 03:55:23;;;;;;;12.27;9.90;;;-2.50;61.80;;;;;;5035341;28;20174;-87
2022/03/13 03:57:49;;;;;;;14.13;10.77;;;-2.50;62.20;;;;;;5035286;28;20588;-89
2022/03/13 04:00:15;;;;;;;13.13;9.63;;;-2.40;62.00;;;;;;5035562;28;20172;-87
2022/03/13 04:02:43;;;;;;;15.73;9.77;;;-2.40;61.90;;;;;;5043937;28;20187;-85
2022/03/13 04:05:11;;;;;;;13.20;10.03;;;-2.50;62.30;;;;;;5049717;28;20172;-86
2022/03/13 04:07:37;;;;;;;14.43;10.20;;;-2.30;62.30;;;;;;5041613;28;20210;-88
2022/03/13 04:10:04;;;;;;;14.50;10.67;;;-2.20;62.20;;;;;;5017578;28;20195;-89
2022/03/13 04:12:31;;;;;;;13.33;10.90;;;-2.10;61.80;;;;;;5040311;28;20201;-89
2022/03/13 04:14:56;;;;;;;12.57;10.40;;;-2.10;61.80;;;;;;5024882;28;20230;-86
2022/03/13 04:17:22;;;;;;;13.17;9.63;;;-2.10;61.80;;;;;;5044459;28;20535;-87
2022/03/13 04:19:48;;;;;;;15.00;10.33;;;-2.10;61.90;;;;;;5020589;28;20677;-88
2022/03/13 04:22:15;;;;;;;15.27;10.77;;;-2.00;62.00;;;;;;5017071;28;20702;-86
2022/03/13 04:24:41;;;;;;;14.53;10.73;;;-1.90;61.70;;;;;;5034595;28;20168;-86
2022/03/13 04:27:07;;;;;;;12.17;10.23;;;-1.90;61.70;;;;;;5034604;28;20231;-85
2022/03/13 04:29:34;;;;;;;13.10;10.50;;;-2.00;61.60;;;;;;5035054;28;20212;-84
2022/03/13 04:32:02;;;;;;;16.83;11.13;;;-2.10;61.80;;;;;;5018859;28;20391;-84
2022/03/13 04:34:28;;;;;;;19.57;10.73;;;-2.10;62.00;;;;;;5038830;28;20169;-84
2022/03/13 04:36:54;;;;;;;13.03;10.30;;;-2.10;62.30;;;;;;5038870;28;20278;-83
2022/03/13 04:39:20;;;;;;;15.77;10.33;;;-2.10;62.30;;;;;;5036984;28;20179;-85
2022/03/13 04:41:46;;;;;;;21.17;10.13;;;-2.00;62.40;;;;;;5038766;28;20208;-88
2022/03/13 04:44:14;;;;;;;15.10;10.63;;;-2.00;62.70;;;;;;5038199;28;20255;-88
2022/03/13 04:46:41;;;;;;;12.90;9.90;;;-1.90;62.50;;;;;;5042864;28;20172;-87
2022/03/13 04:49:07;;;;;;;13.10;9.80;;;-1.90;62.40;;;;;;5034420;28;20659;-87
2022/03/13 04:51:33;;;;;;;13.93;10.53;;;-2.00;62.30;;;;;;5016356;28;20172;-87
2022/03/13 04:53:59;;;;;;;13.40;10.00;;;-2.00;62.00;;;;;;5034139;28;20509;-85
2022/03/13 04:56:24;;;;;;;14.20;10.00;;;-2.10;62.00;;;;;;5037364;28;20176;-84
2022/03/13 04:58:50;;;;;;;12.33;9.80;;;-2.10;61.60;;;;;;5038210;28;20512;-86
2022/03/13 05:01:19;;;;;;;16.17;10.73;;;-2.10;61.70;;;;;;5039621;28;20171;-86
2022/03/13 05:03:45;;;;;;;14.37;9.80;;;-2.10;62.10;;;;;;5021758;28;20701;-87
2022/03/13 05:06:12;;;;;;;14.67;10.50;;;-2.10;62.10;;;;;;5016180;28;20196;-88
2022/03/13 05:08:40;;;;;;;13.27;9.90;;;-2.00;62.30;;;;;;5016390;28;20211;-84
2022/03/13 05:11:07;;;;;;;12.83;10.07;;;-2.10;62.40;;;;;;5033706;28;20183;-86
2022/03/13 05:13:34;;;;;;;16.83;10.63;;;-2.10;62.40;;;;;;5033798;28;20175;-86
2022/03/13 05:16:00;;;;;;;14.40;10.57;;;-2.10;62.60;;;;;;5033107;28;20229;-88
2022/03/13 05:18:26;;;;;;;14.57;10.67;;;-2.20;62.60;;;;;;5033732;28;20546;-88
2022/03/13 05:20:52;;;;;;;14.00;10.43;;;-2.20;62.60;;;;;;5033573;28;20171;-87
2022/03/13 05:23:18;;;;;;;11.70;9.97;;;-2.20;62.70;;;;;;5034022;28;20180;-86
2022/03/13 05:25:44;;;;;;;14.37;10.00;;;-2.20;62.60;;;;;;5033680;28;20251;-87
2022/03/13 05:28:10;;;;;;;14.03;10.03;;;-2.20;62.50;;;;;;5033718;28;20280;-85
2022/03/13 05:30:37;;;;;;;15.53;10.67;;;-2.20;62.60;;;;;;5037284;28;20259;-87
2022/03/13 05:33:04;;;;;;;19.97;10.70;;;-2.30;63.00;;;;;;5035308;28;20230;-89
2022/03/13 05:35:30;;;;;;;16.00;10.93;;;-2.20;63.20;;;;;;5033183;28;20251;-89
2022/03/13 05:37:56;;;;;;;13.27;10.90;;;-2.20;63.60;;;;;;5034053;28;20175;-86
2022/03/13 05:40:23;;;;;;;23.40;10.70;;;-2.30;63.60;;;;;;5034747;28;20176;-88
2022/03/13 05:42:52;;;;;;;13.40;10.57;;;-2.20;63.50;;;;;;5035435;28;20172;-86
2022/03/13 05:45:22;;;;;;;14.17;9.53;;;-2.10;63.20;;;;;;5019494;28;20207;-87
2022/03/13 05:47:50;;;;;;;15.60;11.20;;;-2.10;63.20;;;;;;5033674;28;20228;-88
2022/03/13 05:50:17;;;;;;;13.87;10.33;;;-2.20;63.20;;;;;;5033490;28;20247;-88
2022/03/13 05:52:44;;;;;;;13.60;10.03;;;-2.20;63.40;;;;;;5033097;28;20179;-88
2022/03/13 05:55:10;;;;;;;15.53;10.50;;;-2.20;63.50;;;;;;5033217;28;20175;-87
2022/03/13 05:57:37;;;;;;;11.93;10.40;;;-2.20;63.40;;;;;;5033966;28;20222;-83
2022/03/13 06:00:05;;;;;;;15.03;10.67;;;-2.20;63.30;;;;;;5045317;28;20233;-85
2022/03/13 06:02:31;;;;;;;16.10;11.30;;;-2.10;63.30;;;;;;5043739;28;20617;-88
2022/03/13 06:04:57;;;;;;;14.83;10.60;;;-2.20;63.40;;;;;;5016109;28;20285;-88
2022/03/13 06:07:23;;;;;;;15.43;11.00;;;-2.20;63.60;;;;;;5033615;28;20198;-87
2022/03/13 06:09:49;;;;;;;12.20;10.10;;;-2.20;63.10;;;;;;5032474;28;20192;-85
2022/03/13 06:12:18;;;;;;;13.73;10.90;;;-2.10;62.90;;;;;;5033406;28;20169;-89
2022/03/13 06:14:44;;;;;;;13.43;10.57;;;-2.20;63.40;;;;;;5033484;28;20643;-88
2022/03/13 06:17:10;;;;;;;15.17;10.30;;;-2.10;63.50;;;;;;5040295;28;20176;-86
2022/03/13 06:19:39;;;;;;;13.03;10.50;;;-2.10;63.20;;;;;;5044485;28;20687;-85
2022/03/13 06:22:06;;;;;;;14.97;11.43;;;-2.00;63.30;;;;;;5045921;28;20247;-84
2022/03/13 06:24:32;;;;;;;14.43;10.27;;;-1.90;63.20;;;;;;5021720;28;20191;-88
2022/03/13 06:26:58;;;;;;;13.20;10.53;;;-1.90;63.00;;;;;;5014333;28;20179;-87
2022/03/13 06:29:25;;;;;;;11.13;9.57;;;-1.80;63.10;;;;;;5033212;28;20208;-87
2022/03/13 06:31:52;;;;;;;14.00;11.03;;;-1.70;63.30;;;;;;5033760;28;20196;-87
2022/03/13 06:34:18;;;;;;;14.37;10.73;;;-1.70;63.00;;;;;;5032972;28;20176;-86
2022/03/13 06:36:45;;;;;;;12.10;10.37;;;-1.60;62.90;;;;;;5032651;28;20220;-88
2022/03/13 06:39:10;;;;;;;12.97;10.87;;;-1.50;63.10;;;;;;5033483;28;20173;-85
2022/03/13 06:41:38;;;;;;;12.90;9.43;;;-1.50;62.50;;;;;;5015631;28;20182;-87
2022/03/13 06:44:05;;;;;;;14.03;11.30;;;-1.40;62.30;;;;;;5027789;28;20240;-87
2022/03/13 06:46:32;;;;;;;13.27;10.93;;;-1.40;62.40;;;;;;5034406;28;20183;-86
2022/03/13 06:48:59;;;;;;;14.93;11.17;;;-1.30;62.20;;;;;;5052988;28;20195;-85
2022/03/13 06:51:25;;;;;;;15.13;10.90;;;-1.30;62.20;;;;;;5053469;28;20196;-88
2022/03/13 06:53:51;;;;;;;12.87;10.10;;;-1.30;62.30;;;;;;5059863;28;20179;-86
2022/03/13 06:56:18;;;;;;;15.43;10.63;;;-1.10;62.10;;;;;;5055422;28;20265;-88
2022/03/13 06:58:44;;;;;;;13.33;10.23;;;-1.00;62.00;;;;;;5053008;28;20164;-85
2022/03/13 07:01:17;;;;;;;13.43;10.40;;;-1.00;61.50;;;;;;5038318;28;20179;-85
2022/03/13 07:03:43;;;;;;;14.53;10.93;;;-0.80;61.60;;;;;;5056336;28;20160;-85
2022/03/13 07:06:10;;;;;;;15.07;10.50;;;-0.80;61.90;;;;;;5056095;28;20706;-85
2022/03/13 07:08:35;;;;;;;17.53;11.13;;;-0.80;61.70;;;;;;5040331;28;20230;-87
2022/03/13 07:11:02;;;;;;;15.53;10.57;;;-0.80;61.70;;;;;;5043454;28;20176;-86
2022/03/13 07:13:32;;;;;;;13.30;10.93;;;-0.70;61.00;;;;;;5059389;28;20172;-86
2022/03/13 07:16:03;;;;;;;13.40;9.30;;;-0.80;61.10;;;;;;5067949;28;20160;-84
2022/03/13 07:18:32;;;;;;;10.67;9.47;;;-0.70;61.10;;;;;;5044589;28;20175;-88
2022/03/13 07:20:58;;;;;;;12.90;9.83;;;-0.60;61.40;;;;;;5055933;28;20535;-85
2022/03/13 07:23:24;;;;;;;14.87;10.30;;;-0.50;61.00;;;;;;5055881;28;20503;-85
2022/03/13 07:25:51;;;;;;;11.53;9.23;;;-0.40;61.50;;;;;;5055468;28;20172;-86
2022/03/13 07:28:18;;;;;;;13.77;10.67;;;-0.40;61.30;;;;;;5037592;28;20717;-85
2022/03/13 07:30:44;;;;;;;15.30;10.63;;;-0.30;60.70;;;;;;5057817;28;20181;-86
2022/03/13 07:33:10;;;;;;;12.30;9.20;;;-0.20;60.30;;;;;;5056139;28;20230;-87
2022/03/13 07:35:37;;;;;;;12.47;10.20;;;-0.20;60.40;;;;;;5054684;28;20209;-85
2022/03/13 07:38:03;;;;;;;13.67;9.67;;;-0.10;60.10;;;;;;5055255;28;20206;-88
2022/03/13 07:40:31;;;;;;;12.63;10.27;;;0.00;59.80;;;;;;5037729;28;20670;-85
2022/03/13 07:42:57;;;;;;;13.20;10.43;;;0.20;59.60;;;;;;5055747;28;20173;-87
2022/03/13 07:45:24;;;;;;;13.60;11.23;;;0.20;59.60;;;;;;5038222;28;20180;-86
2022/03/13 07:47:50;;;;;;;12.57;10.40;;;0.30;59.40;;;;;;5054405;28;20199;-86
2022/03/13 07:50:17;;;;;;;13.03;10.13;;;0.40;59.40;;;;;;5037774;28;20225;-85
2022/03/13 07:52:42;;;;;;;13.13;10.50;;;0.50;59.20;;;;;;5056499;28;20224;-84
2022/03/13 07:55:09;;;;;;;13.97;10.90;;;0.50;58.80;;;;;;5060062;28;20207;-87
2022/03/13 07:57:35;;;;;;;15.07;10.10;;;0.70;58.80;;;;;;5063749;28;20253;-87
2022/03/13 08:00:01;;;;;;;16.07;10.40;;;0.80;58.70;;;;;;5060992;28;20688;-88
2022/03/13 08:02:27;;;;;;;13.87;9.73;;;0.80;58.30;;;;;;5042603;28;20173;-87
2022/03/13 08:04:52;;;;;;;13.80;10.23;;;0.90;57.10;;;;;;5058082;28;20230;-86
2022/03/13 08:07:18;;;;;;;12.27;9.97;;;1.00;56.50;;;;;;5058970;28;20170;-85
2022/03/13 08:09:44;;;;;;;18.17;10.40;;;1.10;56.90;;;;;;5064205;28;20183;-85
2022/03/13 08:12:10;;;;;;;12.87;9.30;;;1.20;56.60;;;;;;5063317;28;20626;-85
2022/03/13 08:14:36;;;;;;;10.73;9.63;;;1.30;56.20;;;;;;5043138;28;20532;-87
2022/03/13 08:17:01;;;;;;;15.70;10.80;;;1.30;55.80;;;;;;5063370;28;20179;-86
2022/03/13 08:19:27;;;;;;;11.37;9.60;;;1.40;56.10;;;;;;5062094;28;20258;-89
2022/03/13 08:21:53;;;;;;;12.17;10.80;;;1.40;55.60;;;;;;5057534;28;20202;-90
2022/03/13 08:24:20;;;;;;;10.57;9.47;;;1.50;54.30;;;;;;5056783;28;20174;-86
2022/03/13 08:26:46;;;;;;;12.20;9.97;;;1.60;54.40;;;;;;5055161;28;20174;-89
2022/03/13 08:29:13;;;;;;;15.30;10.57;;;1.70;54.40;;;;;;5055538;28;20211;-88
2022/03/13 08:31:39;;;;;;;16.83;10.40;;;1.80;54.60;;;;;;5055371;28;20182;-87
2022/03/13 08:34:07;;;;;;;15.57;10.67;;;1.80;54.30;;;;;;5054458;28;20222;-86
2022/03/13 08:36:37;;;;;;;12.13;10.03;;;1.90;54.30;;;;;;5054209;28;20227;-89
2022/03/13 08:39:03;;;;;;;12.40;10.47;;;2.00;54.40;;;;;;5054772;28;20169;-87
2022/03/13 08:41:29;;;;;;;14.53;11.13;;;2.20;54.10;;;;;;5054774;28;20172;-85
2022/03/13 08:43:55;;;;;;;14.97;11.23;;;2.20;54.80;;;;;;5054344;28;20175;-87
2022/03/13 08:46:21;;;;;;;15.37;11.67;;;2.20;55.00;;;;;;5052650;28;20182;-87
2022/03/13 08:48:47;;;;;;;16.33;11.37;;;2.30;55.60;;;;;;5053729;28;20206;-86
2022/03/13 08:51:13;;;;;;;16.73;11.20;;;2.30;55.40;;;;;;5054075;28;20209;-85
2022/03/13 08:53:39;;;;;;;14.33;11.53;;;2.40;54.90;;;;;;5035546;28;20182;-86
2022/03/13 08:56:05;;;;;;;16.83;11.37;;;2.40;55.20;;;;;;5036006;28;20179;-85
2022/03/13 08:58:31;;;;;;;21.30;12.20;;;2.50;54.90;;;;;;5060535;28;20187;-85
2022/03/13 09:00:57;;;;;;;15.63;11.80;;;2.60;54.50;;;;;;5075188;28;20236;-86
2022/03/13 09:03:23;;;;;;;16.30;11.87;;;2.60;54.20;;;;;;5066995;28;20718;-87
2022/03/13 09:05:49;;;;;;;13.53;11.00;;;2.70;54.00;;;;;;5060193;28;20192;-87
2022/03/13 09:08:15;;;;;;;13.73;11.20;;;2.70;54.40;;;;;;5062942;28;20234;-86
2022/03/13 09:10:42;;;;;;;14.03;11.30;;;2.70;53.70;;;;;;5062597;28;20179;-88
2022/03/13 09:13:08;;;;;;;13.53;11.33;;;2.80;53.20;;;;;;5059764;28;20200;-86
2022/03/13 09:15:33;;;;;;;13.93;10.70;;;2.90;53.80;;;;;;5053824;28;20171;-90
2022/03/13 09:18:02;;;;;;;14.40;11.37;;;2.90;53.10;;;;;;5035441;28;20209;-87
2022/03/13 09:20:28;;;;;;;14.60;11.80;;;2.90;53.00;;;;;;5036949;28;20226;-88
2022/03/13 09:22:54;;;;;;;14.27;11.50;;;3.00;53.60;;;;;;5060736;28;20603;-88
2022/03/13 09:25:20;;;;;;;14.17;10.97;;;3.10;53.30;;;;;;5055480;28;20190;-87
2022/03/13 09:27:47;;;;;;;13.80;10.80;;;3.20;53.30;;;;;;5054596;28;20187;-88
2022/03/13 09:30:14;;;;;;;15.80;11.60;;;3.30;56.10;;;;;;5054483;28;20166;-89
2022/03/13 09:32:41;;;;;;;15.20;12.10;;;3.50;55.10;;;;;;5039107;28;20178;-87
2022/03/13 09:35:08;;;;;;;15.63;12.47;;;3.70;54.10;;;;;;5063234;28;20208;-87
2022/03/13 09:37:34;;;;;;;12.70;11.30;;;3.70;54.10;;;;;;5068386;28;20190;-86
2022/03/13 09:39:59;;;;;;;14.23;11.43;;;3.80;56.30;;;;;;5066461;28;20628;-89
2022/03/13 09:42:25;;;;;;;15.77;10.97;;;3.80;53.80;;;;;;5053358;28;20210;-89
2022/03/13 09:44:51;;;;;;;14.70;11.63;;;3.80;55.80;;;;;;5053743;28;20577;-87
2022/03/13 09:47:17;;;;;;;12.37;11.07;;;3.90;53.30;;;;;;5052974;28;20179;-89
2022/03/13 09:49:43;;;;;;;12.90;11.57;;;3.90;53.30;;;;;;5035816;28;20205;-89
2022/03/13 09:52:11;;;;;;;14.13;11.63;;;4.00;52.50;;;;;;5054230;28;20175;-88
2022/03/13 09:54:37;;;;;;;13.83;11.73;;;4.00;52.30;;;;;;5054815;28;20175;-87
2022/03/13 09:57:06;;;;;;;22.20;13.10;;;4.00;53.20;;;;;;5053594;28;20175;-89
2022/03/13 09:59:35;;;;;;;16.23;11.57;;;4.00;52.80;;;;;;5055557;28;20730;-87
2022/03/13 10:02:08;;;;;;;15.37;12.53;;;4.20;51.80;;;;;;5053771;28;20176;-89
2022/03/13 10:04:34;;;;;;;15.37;12.57;;;4.30;51.40;;;;;;5034153;28;20180;-90
2022/03/13 10:07:10;;;;;;;17.53;12.87;;;4.20;51.80;;;;;;5015644;28;20180;-86
2022/03/13 10:09:38;;;;;;;16.70;12.53;;;4.20;52.40;;;;;;5016185;28;20213;-85
2022/03/13 10:12:05;;;;;;;15.37;11.97;;;4.20;52.60;;;;;;5001643;28;20180;-86
2022/03/13 10:14:31;;;;;;;15.40;11.73;;;4.30;51.50;;;;;;5000905;28;20702;-86
2022/03/13 10:16:57;;;;;;;13.60;12.07;;;4.30;51.30;;;;;;5017400;28;20219;-85
2022/03/13 10:19:24;;;;;;;16.60;12.47;;;4.40;51.30;;;;;;4998991;28;20227;-89
2022/03/13 10:22:28;;;;;;;15.23;12.53;;;4.30;51.20;;;;;;4997351;28;20177;-87
2022/03/13 10:24:53;;;;;;;16.40;13.23;;;4.50;50.90;;;;;;4935901;29;20239;-86
2022/03/13 10:27:22;;;;;;;16.83;13.43;;;4.70;50.60;;;;;;4935099;29;20555;-87
2022/03/13 10:29:48;;;;;;;12.67;11.37;;;4.70;51.00;;;;;;4938695;29;20188;-87
2022/03/13 10:32:15;;;;;;;13.87;12.37;;;4.70;50.90;;;;;;4933983;29;20209;-87
2022/03/13 10:34:51;;;;;;;16.30;12.90;;;4.70;50.20;;;;;;4937348;29;20215;-91
2022/03/13 10:37:42;;;;;;;17.03;12.90;;;4.80;50.10;;;;;;4924336;29;20195;-89
2022/03/13 10:40:21;;;;;;;15.07;12.50;;;4.80;50.60;;;;;;4937863;29;20288;-89
2022/03/13 10:42:50;;;;;;;17.60;12.37;;;5.00;50.80;;;;;;4937525;29;20183;-89
2022/03/13 10:45:37;;;;;;;16.03;12.57;;;5.00;50.60;;;;;;4937432;29;20543;-86
2022/03/13 10:48:28;;;;;;;15.33;12.37;;;5.10;50.30;;;;;;4936514;29;20271;-89
2022/03/13 10:51:00;;;;;;;14.50;13.00;;;5.10;49.40;;;;;;4937562;29;20176;-90
2022/03/13 10:53:27;;;;;;;14.70;12.23;;;5.10;49.40;;;;;;4936600;29;20180;-88
2022/03/13 10:56:03;;;;;;;16.90;13.17;;;5.20;49.40;;;;;;4937024;29;20195;-88
2022/03/13 10:58:30;;;;;;;16.03;13.10;;;5.30;50.10;;;;;;4936790;29;20225;-88
2022/03/13 11:01:05;;;;;;;17.87;12.87;;;5.40;49.80;;;;;;4966572;28;20203;-88
2022/03/13 11:03:52;;;;;;;14.97;13.10;;;5.40;48.70;;;;;;5008646;28;20187;-88
2022/03/13 11:06:20;;;;;;;16.43;12.63;;;5.40;48.70;;;;;;5004365;28;20193;-87
2022/03/13 11:08:47;;;;;;;20.67;12.80;;;5.50;48.80;;;;;;4984470;28;20213;-86
2022/03/13 11:11:18;;;;;;;19.77;11.93;;;5.60;48.50;;;;;;5000564;28;20631;-85
2022/03/13 11:13:51;;;;;;;13.80;12.13;;;5.60;48.40;;;;;;4996794;28;20212;-85
2022/03/13 11:16:25;;;;;;;15.30;12.70;;;5.70;48.30;;;;;;4979887;28;20201;-86
2022/03/13 11:18:53;;;;;;;13.90;12.33;;;5.70;48.40;;;;;;4997290;28;20640;-85
2022/03/13 11:21:20;;;;;;;14.17;12.63;;;5.70;49.00;;;;;;5000826;28;20176;-89
2022/03/13 11:23:46;;;;;;;14.83;11.90;;;5.80;48.50;;;;;;4998154;28;20634;-88
2022/03/13 11:26:15;;;;;;;15.53;12.13;;;5.90;48.50;;;;;;4996826;28;20312;-88
2022/03/13 11:28:45;;;;;;;13.47;12.07;;;6.00;48.70;;;;;;4996235;28;20217;-87
2022/03/13 11:31:31;;;;;;;14.97;12.53;;;6.10;47.90;;;;;;4996681;28;20605;-88
2022/03/13 11:34:18;;;;;;;16.50;11.87;;;6.20;48.30;;;;;;4996023;28;20260;-85
2022/03/13 11:36:44;;;;;;;14.23;11.87;;;6.20;47.60;;;;;;4995712;28;20232;-82
2022/03/13 11:39:13;;;;;;;14.93;11.73;;;6.30;49.00;;;;;;5015485;28;20184;-83
2022/03/13 11:41:47;;;;;;;14.93;11.93;;;6.30;48.00;;;;;;5016145;28;20592;-86
2022/03/13 11:44:19;;;;;;;12.73;11.37;;;6.20;47.40;;;;;;4998102;28;20186;-84
2022/03/13 11:46:48;;;;;;;12.90;11.37;;;6.30;46.30;;;;;;5015403;28;20622;-87
2022/03/13 11:49:39;;;;;;;18.33;11.90;;;6.40;46.40;;;;;;5023361;28;20254;-88
2022/03/13 11:52:17;;;;;;;14.33;11.67;;;6.40;46.60;;;;;;5021451;28;20241;-90
2022/03/13 11:54:52;;;;;;;13.73;11.80;;;6.50;46.70;;;;;;5005306;28;20165;-86
2022/03/13 11:57:20;;;;;;;14.03;11.70;;;6.50;46.30;;;;;;5021461;28;20153;-83
2022/03/13 11:59:49;;;;;;;15.30;11.70;;;6.60;45.70;;;;;;5020402;28;20169;-84
2022/03/13 12:02:42;;;;;;;12.73;11.07;;;6.60;46.10;;;;;;5021429;28;20244;-88
2022/03/13 12:05:30;;;;;;;13.63;12.20;;;6.60;46.10;;;;;;5028497;28;20209;-85
2022/03/13 12:08:04;;;;;;;13.33;11.93;;;6.70;45.40;;;;;;5023494;28;20260;-83
2022/03/13 12:10:39;;;;;;;16.13;12.57;;;6.90;46.70;;;;;;5005377;28;20169;-85
2022/03/13 12:13:06;;;;;;;13.97;11.50;;;7.10;46.40;;;;;;4999987;28;20213;-87
2022/03/13 12:15:33;;;;;;;13.07;11.67;;;7.10;45.40;;;;;;5018269;28;20742;-86
2022/03/13 12:17:59;;;;;;;13.50;11.23;;;7.00;46.00;;;;;;5018820;28;20588;-88
2022/03/13 12:20:26;;;;;;;12.87;11.47;;;7.00;45.60;;;;;;5026775;28;20176;-83
2022/03/13 12:22:54;;;;;;;12.63;10.83;;;7.00;45.70;;;;;;5017558;28;20194;-90
2022/03/13 12:25:38;;;;;;;14.83;11.17;;;7.10;45.50;;;;;;4998604;28;20642;-86
2022/03/13 12:28:05;;;;;;;12.53;11.23;;;7.20;45.90;;;;;;5017070;28;20270;-90
2022/03/13 12:30:34;;;;;;;11.80;10.53;;;7.30;46.60;;;;;;5023531;28;20165;-90
2022/03/13 12:33:05;;;;;;;10.50;9.27;;;7.40;46.60;;;;;;5008448;28;20177;-90
2022/03/13 12:35:32;;;;;;;9.73;8.73;;;7.40;48.20;;;;;;5018481;28;20299;-87